createdAt,value
2017-11-17T00:00:27.993Z,18.13
2017-11-17T00:02:54.193Z,18.10
2017-11-17T00:05:20.473Z,12.87
2017-11-17T00:07:46.629Z,24.30
2017-11-17T00:10:13.627Z,19.93
2017-11-17T00:12:39.859Z,34.03
2017-11-17T00:15:06.023Z,91.33
2017-11-17T00:17:33.143Z,46.37
2017-11-17T00:19:59.423Z,17.97
2017-11-17T00:22:25.591Z,24.00
2017-11-17T00:24:51.876Z,15.30
2017-11-17T00:27:18.041Z,10.77
2017-11-17T00:29:44.261Z,6.70
2017-11-17T00:32:10.541Z,8.50
2017-11-17T00:34:36.773Z,6.93
2017-11-17T00:37:03.074Z,6.70
2017-11-17T00:39:30.056Z,6.23
2017-11-17T00:41:56.225Z,6.30
2017-11-17T00:44:22.485Z,4.40
2017-11-17T00:46:48.699Z,4.37
2017-11-17T00:49:15.717Z,4.27
2017-11-17T00:51:41.849Z,6.60
2017-11-17T00:54:08.097Z,5.83
2017-11-17T00:56:35.043Z,5.37
2017-11-17T00:59:01.344Z,6.70
2017-11-17T01:01:27.684Z,5.97
2017-11-17T01:03:54.040Z,5.03
2017-11-17T01:06:20.269Z,5.17
2017-11-17T01:08:46.519Z,5.67
2017-11-17T01:11:12.980Z,4.30
2017-11-17T01:13:39.307Z,4.33
2017-11-17T01:16:05.694Z,4.57
2017-11-17T01:18:31.871Z,5.33
2017-11-17T01:20:58.150Z,6.60
2017-11-17T01:23:24.338Z,8.83
2017-11-17T01:25:50.531Z,6.93
2017-11-17T01:28:16.765Z,7.17
2017-11-17T01:30:42.963Z,6.10
2017-11-17T01:33:09.150Z,5.40
2017-11-17T01:35:35.428Z,4.93
2017-11-17T01:38:01.691Z,4.63
2017-11-17T01:40:27.999Z,4.43
2017-11-17T01:42:54.281Z,4.07
2017-11-17T01:45:20.509Z,3.67
2017-11-17T01:47:46.684Z,3.70
2017-11-17T01:50:12.915Z,3.40
2017-11-17T01:52:39.137Z,3.50
2017-11-17T01:55:05.375Z,6.80
2017-11-17T01:57:31.736Z,4.40
2017-11-17T01:59:58.808Z,3.70
2017-11-17T02:02:25.070Z,3.40
2017-11-17T02:04:51.330Z,3.47
2017-11-17T02:07:18.294Z,3.80
2017-11-17T02:09:44.642Z,3.50
2017-11-17T02:12:10.883Z,4.10
2017-11-17T02:14:37.180Z,4.50
2017-11-17T02:17:03.440Z,3.53
2017-11-17T02:19:29.596Z,3.77
2017-11-17T02:21:55.903Z,4.17
2017-11-17T02:24:22.236Z,3.57
2017-11-17T02:26:48.528Z,3.60
2017-11-17T02:29:14.858Z,3.60
2017-11-17T02:31:41.130Z,3.33
2017-11-17T02:34:07.330Z,3.60
2017-11-17T02:36:33.558Z,4.20
2017-11-17T02:38:59.784Z,4.13
2017-11-17T02:41:26.026Z,3.90
2017-11-17T02:43:52.344Z,3.73
2017-11-17T02:46:18.662Z,3.80
2017-11-17T02:48:45.006Z,4.03
2017-11-17T02:51:11.358Z,3.80
2017-11-17T02:53:37.662Z,4.10
2017-11-17T02:56:03.913Z,3.73
2017-11-17T02:58:30.145Z,4.30
2017-11-17T03:00:56.454Z,4.00
2017-11-17T03:03:22.685Z,5.10
2017-11-17T03:05:48.961Z,4.23
2017-11-17T03:08:15.242Z,4.80
2017-11-17T03:10:41.467Z,4.40
2017-11-17T03:13:07.676Z,6.93
2017-11-17T03:15:34.665Z,4.50
2017-11-17T03:18:01.580Z,3.97
2017-11-17T03:20:27.823Z,4.13
2017-11-17T03:22:54.025Z,3.30
2017-11-17T03:25:20.286Z,5.50
2017-11-17T03:27:47.325Z,5.13
2017-11-17T03:30:14.382Z,4.40
2017-11-17T03:32:41.398Z,5.70
2017-11-17T03:35:07.710Z,5.10
2017-11-17T03:37:33.926Z,4.77
2017-11-17T03:40:00.982Z,4.37
2017-11-17T03:42:27.226Z,8.10
2017-11-17T03:44:53.580Z,4.20
2017-11-17T03:47:20.564Z,4.07
2017-11-17T03:49:46.728Z,12.03
2017-11-17T03:52:12.985Z,3.83
2017-11-17T03:54:40.036Z,4.27
2017-11-17T03:57:06.960Z,4.97
2017-11-17T03:59:33.965Z,9.10
2017-11-17T04:02:00.319Z,8.73
2017-11-17T04:04:26.553Z,18.67
2017-11-17T04:06:52.948Z,19.60
2017-11-17T04:09:19.169Z,32.47
2017-11-17T04:11:45.349Z,32.80
2017-11-17T04:14:11.650Z,19.60
2017-11-17T04:16:37.921Z,12.43
2017-11-17T04:19:04.118Z,16.00
2017-11-17T04:21:30.380Z,17.13
2017-11-17T04:23:56.557Z,15.90
2017-11-17T04:26:22.741Z,19.43
2017-11-17T04:28:49.008Z,16.87
2017-11-17T04:31:15.256Z,13.97
2017-11-17T04:33:41.581Z,14.57
2017-11-17T04:36:07.803Z,12.90
2017-11-17T04:38:33.957Z,10.07
2017-11-17T04:41:00.970Z,11.43
2017-11-17T04:43:27.167Z,11.80
2017-11-17T04:45:53.451Z,11.43
2017-11-17T04:48:20.331Z,7.07
2017-11-17T04:50:46.836Z,6.57
2017-11-17T04:53:13.768Z,4.53
2017-11-17T04:55:40.195Z,8.67
2017-11-17T04:58:07.152Z,10.37
2017-11-17T05:00:34.093Z,8.43
2017-11-17T05:03:00.400Z,7.87
2017-11-17T05:05:26.654Z,11.70
2017-11-17T05:07:52.808Z,10.40
2017-11-17T05:10:19.028Z,7.40
2017-11-17T05:12:45.197Z,5.70
2017-11-17T05:15:11.507Z,7.70
2017-11-17T05:17:37.669Z,6.50
2017-11-17T05:20:04.894Z,5.03
2017-11-17T05:22:31.107Z,5.10
2017-11-17T05:24:57.376Z,7.70
2017-11-17T05:27:24.365Z,6.43
2017-11-17T05:29:50.722Z,8.23
2017-11-17T05:32:16.943Z,5.93
2017-11-17T05:34:43.195Z,5.80
2017-11-17T05:37:09.439Z,5.60
2017-11-17T05:39:35.697Z,6.50
2017-11-17T05:42:01.902Z,4.50
2017-11-17T05:44:28.344Z,6.77
2017-11-17T05:46:54.540Z,4.67
2017-11-17T05:49:21.538Z,4.70
2017-11-17T05:51:47.800Z,6.70
2017-11-17T05:54:14.004Z,10.30
2017-11-17T05:56:40.249Z,6.77
2017-11-17T05:59:06.529Z,4.97
2017-11-17T06:01:32.819Z,5.10
2017-11-17T06:03:59.983Z,7.10
2017-11-17T06:06:27.020Z,7.93
2017-11-17T06:08:54.012Z,8.40
2017-11-17T06:11:20.279Z,6.43
2017-11-17T06:13:46.429Z,5.30
2017-11-17T06:16:13.389Z,5.70
2017-11-17T06:18:39.533Z,9.10
2017-11-17T06:21:05.785Z,5.37
2017-11-17T06:23:31.975Z,4.00
2017-11-17T06:25:58.205Z,3.93
2017-11-17T06:28:24.472Z,4.13
2017-11-17T06:30:50.658Z,4.50
2017-11-17T06:33:16.908Z,4.43
2017-11-17T06:35:43.142Z,4.90
2017-11-17T06:38:09.338Z,4.40
2017-11-17T06:40:35.702Z,4.27
2017-11-17T06:43:01.991Z,4.13
2017-11-17T06:45:28.191Z,3.50
2017-11-17T06:47:55.191Z,3.17
2017-11-17T06:50:21.358Z,3.70
2017-11-17T06:52:48.287Z,3.87
2017-11-17T06:55:14.529Z,4.10
2017-11-17T06:57:41.471Z,3.33
2017-11-17T07:00:08.473Z,3.03
2017-11-17T07:02:34.741Z,3.73
2017-11-17T07:05:01.714Z,4.17
2017-11-17T07:07:27.972Z,3.23
2017-11-17T07:09:54.165Z,3.67
2017-11-17T07:12:20.366Z,13.37
2017-11-17T07:14:47.283Z,26.00
2017-11-17T07:17:13.478Z,213.60
2017-11-17T07:19:39.772Z,115.07
2017-11-17T07:22:05.993Z,41.50
2017-11-17T07:24:32.967Z,26.40
2017-11-17T07:26:59.156Z,22.87
2017-11-17T07:29:26.183Z,19.47
2017-11-17T07:31:52.361Z,30.10
2017-11-17T07:34:18.629Z,55.63
2017-11-17T07:36:44.784Z,20.37
2017-11-17T07:39:11.841Z,32.20
2017-11-17T07:41:38.084Z,25.20
2017-11-17T07:44:04.273Z,14.40
2017-11-17T07:46:30.541Z,19.90
2017-11-17T07:48:56.752Z,13.73
2017-11-17T07:51:22.928Z,13.00
2017-11-17T07:53:49.171Z,12.77
2017-11-17T07:56:15.389Z,16.13
2017-11-17T07:58:41.678Z,13.10
2017-11-17T08:01:07.877Z,11.07
2017-11-17T08:03:34.826Z,9.50
2017-11-17T08:06:01.180Z,12.40
2017-11-17T08:08:27.358Z,11.63
2017-11-17T08:10:54.273Z,14.70
2017-11-17T08:13:20.622Z,25.87
2017-11-17T08:15:47.758Z,19.17
2017-11-17T08:18:26.159Z,13.10
2017-11-17T08:20:52.462Z,12.43
2017-11-17T08:23:18.676Z,11.17
2017-11-17T08:25:44.899Z,12.63
2017-11-17T08:28:11.070Z,11.97
2017-11-17T08:30:37.354Z,8.50
2017-11-17T08:33:03.513Z,12.90
2017-11-17T08:35:29.779Z,10.40
2017-11-17T08:37:56.269Z,9.07
2017-11-17T08:40:22.581Z,10.37
2017-11-17T08:42:48.825Z,12.50
2017-11-17T08:45:14.964Z,8.20
2017-11-17T08:47:41.171Z,15.23
2017-11-17T08:50:07.405Z,11.40
2017-11-17T08:52:33.724Z,9.90
2017-11-17T08:54:59.964Z,12.77
2017-11-17T08:57:26.426Z,7.60
2017-11-17T08:59:52.720Z,8.07
2017-11-17T09:02:18.868Z,8.70
2017-11-17T09:04:45.128Z,10.47
2017-11-17T09:07:12.118Z,10.80
2017-11-17T09:09:38.358Z,7.67
2017-11-17T09:12:04.573Z,9.60
2017-11-17T09:14:30.754Z,7.60
2017-11-17T09:16:57.869Z,8.27
2017-11-17T09:19:24.019Z,12.20
2017-11-17T09:21:50.327Z,10.17
2017-11-17T09:24:16.586Z,10.40
2017-11-17T09:26:43.742Z,7.47
2017-11-17T09:29:10.028Z,10.20
2017-11-17T09:31:36.253Z,7.90
2017-11-17T09:34:02.452Z,6.77
2017-11-17T09:36:29.533Z,6.77
2017-11-17T09:38:55.743Z,9.70
2017-11-17T09:41:21.910Z,10.20
2017-11-17T09:43:48.191Z,9.80
2017-11-17T09:46:15.250Z,15.57
2017-11-17T09:48:41.481Z,63.07
2017-11-17T09:51:07.707Z,89.80
2017-11-17T09:53:34.018Z,22.43
2017-11-17T09:56:00.217Z,22.67
2017-11-17T09:58:26.527Z,17.83
2017-11-17T10:00:53.438Z,17.47
2017-11-17T10:03:19.752Z,12.07
2017-11-17T10:05:46.267Z,15.27
2017-11-17T10:08:12.539Z,16.50
2017-11-17T10:10:38.779Z,17.50
2017-11-17T10:13:05.747Z,14.10
2017-11-17T10:15:31.968Z,18.50
2017-11-17T10:17:58.248Z,9.90
2017-11-17T10:20:24.436Z,12.27
2017-11-17T10:22:50.641Z,13.30
2017-11-17T10:25:16.847Z,13.67
2017-11-17T10:27:43.095Z,21.40
2017-11-17T10:30:09.343Z,9.70
2017-11-17T10:32:35.479Z,11.63
2017-11-17T10:35:01.744Z,10.77
2017-11-17T10:37:28.063Z,9.00
2017-11-17T10:39:54.291Z,18.57
2017-11-17T10:42:20.593Z,34.43
2017-11-17T10:44:46.895Z,170.27
2017-11-17T10:47:13.073Z,143.20
2017-11-17T10:49:39.524Z,39.73
2017-11-17T10:52:05.717Z,53.70
2017-11-17T10:54:31.920Z,24.20
2017-11-17T10:56:58.094Z,12.00
2017-11-17T10:59:24.386Z,11.50
2017-11-17T11:01:50.849Z,9.93
2017-11-17T11:04:17.132Z,12.30
2017-11-17T11:06:43.716Z,9.30
2017-11-17T11:09:09.989Z,7.07
2017-11-17T11:11:42.225Z,7.67
2017-11-17T11:14:09.271Z,11.03
2017-11-17T11:16:36.162Z,7.60
2017-11-17T11:19:02.419Z,7.70
2017-11-17T11:21:28.679Z,6.33
2017-11-17T11:23:54.950Z,8.03
2017-11-17T11:26:21.208Z,9.60
2017-11-17T11:28:47.343Z,5.40
2017-11-17T11:31:14.393Z,5.70
2017-11-17T11:33:41.448Z,6.80
2017-11-17T11:36:08.367Z,8.00
2017-11-17T11:38:34.500Z,11.23
2017-11-17T11:41:00.732Z,6.57
2017-11-17T11:43:27.687Z,6.07
2017-11-17T11:45:54.652Z,10.83
2017-11-17T11:48:20.786Z,21.67
2017-11-17T11:50:47.809Z,9.23
2017-11-17T11:53:14.768Z,8.23
2017-11-17T11:55:40.947Z,6.37
2017-11-17T11:58:07.175Z,7.43
2017-11-17T12:00:33.567Z,136.70
2017-11-17T12:02:59.789Z,25.20
2017-11-17T12:05:26.054Z,15.63
2017-11-17T12:07:52.188Z,85.73
2017-11-17T12:10:18.454Z,17.67
2017-11-17T12:12:44.598Z,16.13
2017-11-17T12:15:10.882Z,36.17
2017-11-17T12:17:37.847Z,21.77
2017-11-17T12:20:04.058Z,22.43
2017-11-17T12:22:30.978Z,18.90
2017-11-17T12:24:57.194Z,12.27
2017-11-17T12:27:23.396Z,7.03
2017-11-17T12:29:49.690Z,7.90
2017-11-17T12:32:16.695Z,13.63
2017-11-17T12:34:42.934Z,12.90
2017-11-17T12:37:09.219Z,7.47
2017-11-17T12:39:35.465Z,7.70
2017-11-17T12:42:01.606Z,15.90
2017-11-17T12:44:27.827Z,11.30
2017-11-17T12:46:53.997Z,13.23
2017-11-17T12:49:20.839Z,9.03
2017-11-17T12:51:47.199Z,10.00
2017-11-17T12:54:13.390Z,11.10
2017-11-17T12:56:40.313Z,13.30
2017-11-17T12:59:06.603Z,8.30
2017-11-17T13:01:32.825Z,7.70
2017-11-17T13:03:59.145Z,10.20
2017-11-17T13:06:25.453Z,11.57
2017-11-17T13:08:51.655Z,12.40
2017-11-17T13:11:17.805Z,13.03
2017-11-17T13:13:44.068Z,29.87
2017-11-17T13:16:10.359Z,89.90
2017-11-17T13:18:37.376Z,26.60
2017-11-17T13:21:04.358Z,7.50
2017-11-17T13:23:30.533Z,12.83
2017-11-17T13:25:56.761Z,14.50
2017-11-17T13:28:22.943Z,14.60
2017-11-17T13:30:49.119Z,14.00
2017-11-17T13:33:15.293Z,11.70
2017-11-17T13:35:41.551Z,14.70
2017-11-17T13:38:07.897Z,21.23
2017-11-17T13:40:34.117Z,12.70
2017-11-17T13:43:00.447Z,16.93
2017-11-17T13:45:26.614Z,20.30
2017-11-17T13:47:53.513Z,13.30
2017-11-17T13:50:19.654Z,120.47
2017-11-17T13:52:45.900Z,196.57
2017-11-17T13:55:12.847Z,144.03
2017-11-17T13:57:40.689Z,101.60
2017-11-17T14:00:06.908Z,51.90
2017-11-17T14:02:33.049Z,28.40
2017-11-17T14:05:00.105Z,14.93
2017-11-17T14:07:27.318Z,17.30
2017-11-17T14:09:53.471Z,15.57
2017-11-17T14:12:20.638Z,12.73
2017-11-17T14:14:47.075Z,11.23
2017-11-17T14:17:13.245Z,17.03
2017-11-17T14:19:39.543Z,14.77
2017-11-17T14:22:05.798Z,18.57
2017-11-17T14:24:32.157Z,14.70
2017-11-17T14:26:59.167Z,12.80
2017-11-17T14:29:25.369Z,11.93
2017-11-17T14:31:51.690Z,8.07
2017-11-17T14:34:17.924Z,14.30
2017-11-17T14:36:44.522Z,39.77
2017-11-17T14:39:10.704Z,107.60
2017-11-17T14:41:36.911Z,47.87
2017-11-17T14:44:03.203Z,26.13
2017-11-17T14:46:29.571Z,19.10
2017-11-17T14:48:55.844Z,11.83
2017-11-17T14:51:22.221Z,12.13
2017-11-17T14:53:48.590Z,8.73
2017-11-17T14:56:14.964Z,13.03
2017-11-17T14:58:42.021Z,12.10
2017-11-17T15:01:08.285Z,9.63
2017-11-17T15:03:34.612Z,4.90
2017-11-17T15:06:00.990Z,9.10
2017-11-17T15:08:28.648Z,8.10
2017-11-17T15:10:56.535Z,5.60
2017-11-17T15:13:22.843Z,6.20
2017-11-17T15:15:50.134Z,6.20
2017-11-17T15:18:17.315Z,4.27
2017-11-17T15:20:43.556Z,6.80
2017-11-17T15:23:10.815Z,7.90
2017-11-17T15:25:37.242Z,7.53
2017-11-17T15:28:03.550Z,10.60
2017-11-17T15:30:30.629Z,10.37
2017-11-17T15:32:58.470Z,7.70
2017-11-17T15:35:24.877Z,8.07
2017-11-17T15:37:51.100Z,6.77
2017-11-17T15:40:17.417Z,5.87
2017-11-17T15:42:43.624Z,4.13
2017-11-17T15:45:10.620Z,10.00
2017-11-17T15:47:36.910Z,6.93
2017-11-17T15:50:03.163Z,6.00
2017-11-17T15:52:29.524Z,12.47
2017-11-17T15:54:55.741Z,4.97
2017-11-17T15:57:22.083Z,8.87
2017-11-17T15:59:48.305Z,8.47
2017-11-17T16:02:14.549Z,5.80
2017-11-17T16:04:41.518Z,6.80
2017-11-17T16:07:07.805Z,9.27
2017-11-17T16:09:34.122Z,14.37
2017-11-17T16:12:01.102Z,12.20
2017-11-17T16:14:28.113Z,9.43
2017-11-17T16:16:55.865Z,8.27
2017-11-17T16:19:22.038Z,6.17
2017-11-17T16:21:49.038Z,13.50
2017-11-17T16:24:15.369Z,10.43
2017-11-17T16:26:41.835Z,59.17
2017-11-17T16:29:08.776Z,29.67
2017-11-17T16:31:36.734Z,23.27
2017-11-17T16:34:02.989Z,22.80
2017-11-17T16:36:29.890Z,12.17
2017-11-17T16:38:56.077Z,10.63
2017-11-17T16:41:22.375Z,11.53
2017-11-17T16:43:48.641Z,9.90
2017-11-17T16:46:15.037Z,14.27
2017-11-17T16:48:42.006Z,12.43
2017-11-17T16:51:08.146Z,8.87
2017-11-17T16:53:34.377Z,12.17
2017-11-17T16:56:01.867Z,8.60
2017-11-17T16:58:28.275Z,7.40
2017-11-17T17:00:54.485Z,11.23
2017-11-17T17:03:20.717Z,6.00
2017-11-17T17:05:47.048Z,15.33
2017-11-17T17:08:13.327Z,12.27
2017-11-17T17:10:40.719Z,15.43
2017-11-17T17:13:06.932Z,15.10
2017-11-17T17:15:33.117Z,11.57
2017-11-17T17:17:59.316Z,12.07
2017-11-17T17:20:25.547Z,13.50
2017-11-17T17:22:51.837Z,16.53
2017-11-17T17:25:17.987Z,19.20
2017-11-17T17:27:44.191Z,11.53
2017-11-17T17:30:10.398Z,15.17
2017-11-17T17:32:37.342Z,18.80
2017-11-17T17:35:04.271Z,22.90
2017-11-17T17:37:30.497Z,16.80
2017-11-17T17:39:56.730Z,12.60
2017-11-17T17:42:23.645Z,13.57
2017-11-17T17:44:49.834Z,13.97
2017-11-17T17:47:15.986Z,13.97
2017-11-17T17:49:42.237Z,13.10
2017-11-17T17:52:08.529Z,11.57
2017-11-17T17:54:34.783Z,12.50
2017-11-17T17:57:00.957Z,11.13
2017-11-17T17:59:27.218Z,5.60
2017-11-17T18:01:53.526Z,10.40
2017-11-17T18:04:19.831Z,11.30
2017-11-17T18:06:46.896Z,31.67
2017-11-17T18:09:13.164Z,21.17
2017-11-17T18:11:39.356Z,10.80
2017-11-17T18:14:08.677Z,8.13
2017-11-17T18:16:35.154Z,7.20
2017-11-17T18:19:02.051Z,44.40
2017-11-17T18:21:28.250Z,11.20
2017-11-17T18:23:54.548Z,19.33
2017-11-17T18:26:21.526Z,24.73
2017-11-17T18:28:47.745Z,20.63
2017-11-17T18:31:13.998Z,16.73
2017-11-17T18:33:40.207Z,9.33
2017-11-17T18:36:06.506Z,17.73
2017-11-17T18:38:33.561Z,11.33
2017-11-17T18:41:00.672Z,11.73
2017-11-17T18:43:26.855Z,6.97
2017-11-17T18:45:54.045Z,16.33
2017-11-17T18:48:20.927Z,17.97
2017-11-17T18:50:47.870Z,20.20
2017-11-17T18:53:14.173Z,65.83
2017-11-17T18:55:40.511Z,94.80
2017-11-17T18:58:07.413Z,67.30
2017-11-17T19:00:33.609Z,18.73
2017-11-17T19:02:59.958Z,28.53
2017-11-17T19:05:26.296Z,15.10
2017-11-17T19:07:52.587Z,13.17
2017-11-17T19:10:18.832Z,13.83
2017-11-17T19:12:45.108Z,10.80
2017-11-17T19:15:11.401Z,12.17
2017-11-17T19:17:37.663Z,15.83
2017-11-17T19:20:04.003Z,18.43
2017-11-17T19:22:31.125Z,9.03
2017-11-17T19:24:57.362Z,11.40
2017-11-17T19:27:23.727Z,12.73
2017-11-17T19:29:50.738Z,10.83
2017-11-17T19:32:16.980Z,8.90
2017-11-17T19:34:44.008Z,10.80
2017-11-17T19:37:10.194Z,8.87
2017-11-17T19:39:36.417Z,10.93
2017-11-17T19:42:02.715Z,12.93
2017-11-17T19:44:29.645Z,14.23
2017-11-17T19:46:55.776Z,12.93
2017-11-17T19:49:22.113Z,11.60
2017-11-17T19:51:49.089Z,12.40
2017-11-17T19:54:15.360Z,11.27
2017-11-17T19:56:41.789Z,5.00
2017-11-17T19:59:08.063Z,11.50
2017-11-17T20:01:34.286Z,5.90
2017-11-17T20:04:00.495Z,26.17
2017-11-17T20:06:27.402Z,44.53
2017-11-17T20:08:53.776Z,30.47
2017-11-17T20:11:20.773Z,19.10
2017-11-17T20:13:47.064Z,19.33
2017-11-17T20:16:13.291Z,51.60
2017-11-17T20:18:39.423Z,103.57
2017-11-17T20:21:05.645Z,92.03
2017-11-17T20:23:31.904Z,37.43
2017-11-17T20:25:58.159Z,31.33
2017-11-17T20:28:24.374Z,38.33
2017-11-17T20:30:50.497Z,22.73
2017-11-17T20:33:16.704Z,11.17
2017-11-17T20:35:42.994Z,13.10
2017-11-17T20:38:09.220Z,11.67
2017-11-17T20:40:35.463Z,16.40
2017-11-17T20:43:01.660Z,18.07
2017-11-17T20:45:28.620Z,13.17
2017-11-17T20:47:54.870Z,16.37
2017-11-17T20:50:21.149Z,13.80
2017-11-17T20:52:48.275Z,22.00
2017-11-17T20:55:14.474Z,14.17
2017-11-17T20:57:40.740Z,18.40
2017-11-17T21:00:06.927Z,19.50
2017-11-17T21:02:33.145Z,19.57
2017-11-17T21:04:59.425Z,11.93
2017-11-17T21:07:25.688Z,13.10
2017-11-17T21:09:52.000Z,10.70
2017-11-17T21:12:18.965Z,6.83
2017-11-17T21:14:45.190Z,9.80
2017-11-17T21:17:11.412Z,13.90
2017-11-17T21:19:37.703Z,11.87
2017-11-17T21:22:03.926Z,12.73
2017-11-17T21:24:30.205Z,7.57
2017-11-17T21:26:56.696Z,14.07
2017-11-17T21:29:22.900Z,5.17
2017-11-17T21:31:49.049Z,8.77
2017-11-17T21:34:15.999Z,8.50
2017-11-17T21:36:43.243Z,7.63
2017-11-17T21:39:10.222Z,4.90
2017-11-17T21:41:36.525Z,4.67
2017-11-17T21:44:03.459Z,37.80
2017-11-17T21:46:29.753Z,67.27
2017-11-17T21:48:55.947Z,43.27
2017-11-17T21:51:22.133Z,31.97
2017-11-17T21:53:48.317Z,27.77
2017-11-17T21:56:14.427Z,7.13
2017-11-17T21:58:40.622Z,18.33
2017-11-17T22:01:07.561Z,15.63
2017-11-17T22:03:33.811Z,11.50
2017-11-17T22:05:59.994Z,9.30
2017-11-17T22:08:26.156Z,7.37
2017-11-17T22:10:53.289Z,6.20
2017-11-17T22:13:19.548Z,7.13
2017-11-17T22:15:45.790Z,16.77
2017-11-17T22:18:12.014Z,25.87
2017-11-17T22:20:38.196Z,19.43
2017-11-17T22:23:05.122Z,10.17
2017-11-17T22:25:31.337Z,12.90
2017-11-17T22:27:57.621Z,16.43
2017-11-17T22:30:24.034Z,20.37
2017-11-17T22:32:50.976Z,35.60
2017-11-17T22:35:17.934Z,21.93
2017-11-17T22:37:44.117Z,58.43
2017-11-17T22:40:10.499Z,48.87
2017-11-17T22:42:36.769Z,44.93
2017-11-17T22:45:03.081Z,28.87
2017-11-17T22:47:29.273Z,22.33
2017-11-17T22:49:55.516Z,20.23
2017-11-17T22:52:21.785Z,25.47
2017-11-17T22:54:48.370Z,11.70
2017-11-17T22:57:14.573Z,14.93
2017-11-17T22:59:41.598Z,9.73
2017-11-17T23:02:07.802Z,6.23
2017-11-17T23:04:34.007Z,8.20
2017-11-17T23:07:00.306Z,13.00
2017-11-17T23:09:26.490Z,24.20
2017-11-17T23:11:52.741Z,67.33
2017-11-17T23:14:18.957Z,35.80
2017-11-17T23:16:45.066Z,26.97
2017-11-17T23:19:11.267Z,37.83
2017-11-17T23:21:37.398Z,25.53
2017-11-17T23:24:03.700Z,44.07
2017-11-17T23:26:29.886Z,47.40
2017-11-17T23:28:56.117Z,74.67
2017-11-17T23:31:22.608Z,107.93
2017-11-17T23:33:48.842Z,69.43
2017-11-17T23:36:15.519Z,168.40
2017-11-17T23:38:41.715Z,87.63
2017-11-17T23:41:07.980Z,33.43
2017-11-17T23:43:34.965Z,50.47
2017-11-17T23:46:01.131Z,116.53
2017-11-17T23:48:27.416Z,103.70
2017-11-17T23:50:53.694Z,51.77
2017-11-17T23:53:20.707Z,131.67
2017-11-17T23:55:46.892Z,85.23
2017-11-17T23:58:13.118Z,197.87
